createdAt,value
2018-03-15T00:00:13.821Z,8.88
2018-03-15T00:01:14.114Z,8.92
2018-03-15T00:02:14.129Z,8.95
2018-03-15T00:03:13.573Z,8.78
2018-03-15T00:04:13.876Z,8.88
2018-03-15T00:05:14.169Z,8.81
2018-03-15T00:06:13.896Z,8.78
2018-03-15T00:07:13.640Z,8.91
2018-03-15T00:08:13.834Z,8.76
2018-03-15T00:09:13.934Z,8.92
2018-03-15T00:10:14.236Z,8.81
2018-03-15T00:11:13.962Z,8.82
2018-03-15T00:12:14.264Z,8.79
2018-03-15T00:13:14.285Z,8.81
2018-03-15T00:14:14.004Z,8.87
2018-03-15T00:15:14.022Z,8.79
2018-03-15T00:16:14.032Z,8.81
2018-03-15T00:17:14.334Z,8.79
2018-03-15T00:18:14.058Z,8.82
2018-03-15T00:19:14.076Z,8.76
2018-03-15T00:20:14.082Z,8.82
2018-03-15T00:21:14.437Z,8.81
2018-03-15T00:22:14.390Z,8.79
2018-03-15T00:23:14.126Z,8.81
2018-03-15T00:24:13.853Z,8.81
2018-03-15T00:25:13.867Z,8.84
2018-03-15T00:26:14.451Z,8.78
2018-03-15T00:27:13.892Z,8.78
2018-03-15T00:28:14.468Z,8.78
2018-03-15T00:29:14.488Z,8.78
2018-03-15T00:30:14.217Z,8.78
2018-03-15T00:31:13.947Z,8.78
2018-03-15T00:32:14.240Z,8.81
2018-03-15T00:33:13.973Z,8.81
2018-03-15T00:34:14.555Z,8.82
2018-03-15T00:35:14.570Z,8.74
2018-03-15T00:36:14.580Z,8.78
2018-03-15T00:37:14.593Z,8.76
2018-03-15T00:38:14.326Z,8.88
2018-03-15T00:39:14.617Z,8.71
2018-03-15T00:40:14.354Z,8.69
2018-03-15T00:41:14.698Z,8.7
2018-03-15T00:42:14.376Z,8.69
2018-03-15T00:43:14.384Z,8.71
2018-03-15T00:44:14.696Z,8.69
2018-03-15T00:45:14.694Z,8.71
2018-03-15T00:46:14.432Z,8.69
2018-03-15T00:47:14.440Z,8.74
2018-03-15T00:48:14.458Z,8.73
2018-03-15T00:49:14.511Z,8.69
2018-03-15T00:50:14.477Z,8.67
2018-03-15T00:51:14.864Z,8.7
2018-03-15T00:52:14.800Z,8.74
2018-03-15T00:53:14.852Z,8.73
2018-03-15T00:54:14.818Z,8.7
2018-03-15T00:55:14.837Z,8.7
2018-03-15T00:56:14.565Z,8.66
2018-03-15T00:57:14.977Z,8.76
2018-03-15T00:58:14.583Z,8.71
2018-03-15T00:59:14.600Z,8.7
2018-03-15T01:00:14.902Z,8.7
2018-03-15T01:01:15.074Z,8.73
2018-03-15T01:02:14.644Z,8.71
2018-03-15T01:03:14.674Z,8.7
2018-03-15T01:04:14.382Z,8.73
2018-03-15T01:05:14.960Z,8.69
2018-03-15T01:06:14.688Z,8.74
2018-03-15T01:07:14.706Z,8.69
2018-03-15T01:08:15.007Z,8.71
2018-03-15T01:09:15.012Z,8.73
2018-03-15T01:10:15.028Z,8.69
2018-03-15T01:11:14.474Z,8.69
2018-03-15T01:12:14.769Z,8.7
2018-03-15T01:13:14.782Z,8.67
2018-03-15T01:14:15.074Z,8.7
2018-03-15T01:15:15.096Z,8.69
2018-03-15T01:16:15.104Z,8.69
2018-03-15T01:17:15.124Z,8.69
2018-03-15T01:18:15.130Z,8.63
2018-03-15T01:19:14.861Z,8.64
2018-03-15T01:20:15.158Z,8.58
2018-03-15T01:21:15.173Z,8.53
2018-03-15T01:22:14.912Z,8.58
2018-03-15T01:23:15.215Z,8.6
2018-03-15T01:24:15.221Z,8.58
2018-03-15T01:25:14.955Z,8.55
2018-03-15T01:26:15.239Z,8.56
2018-03-15T01:27:15.253Z,8.51
2018-03-15T01:28:15.267Z,8.64
2018-03-15T01:29:14.990Z,8.56
2018-03-15T01:30:15.300Z,8.55
2018-03-15T01:31:14.737Z,8.6
2018-03-15T01:32:15.032Z,8.52
2018-03-15T01:33:15.332Z,8.49
2018-03-15T01:34:15.064Z,8.53
2018-03-15T01:35:15.069Z,8.51
2018-03-15T01:36:15.369Z,8.52
2018-03-15T01:37:15.378Z,8.53
2018-03-15T01:38:15.396Z,8.52
2018-03-15T01:39:14.843Z,8.49
2018-03-15T01:40:15.140Z,8.46
2018-03-15T01:41:15.171Z,8.51
2018-03-15T01:42:15.163Z,8.53
2018-03-15T01:43:15.462Z,8.51
2018-03-15T01:44:14.909Z,8.44
2018-03-15T01:45:15.200Z,8.38
2018-03-15T01:46:14.933Z,8.31
2018-03-15T01:47:15.227Z,8.34
2018-03-15T01:48:15.243Z,8.34
2018-03-15T01:49:15.541Z,8.41
2018-03-15T01:50:15.553Z,8.31
2018-03-15T01:51:15.566Z,8.38
2018-03-15T01:52:15.292Z,8.34
2018-03-15T01:53:15.307Z,8.37
2018-03-15T01:54:15.605Z,8.34
2018-03-15T01:55:15.623Z,8.34
2018-03-15T01:56:15.627Z,8.3
2018-03-15T01:57:15.643Z,8.24
2018-03-15T01:58:15.657Z,8.33
2018-03-15T01:59:15.385Z,8.33
2018-03-15T02:00:15.725Z,8.31
2018-03-15T02:01:15.412Z,8.19
2018-03-15T02:02:15.432Z,8.2
2018-03-15T02:03:15.720Z,8.24
2018-03-15T02:04:15.451Z,8.18
2018-03-15T02:05:15.750Z,8.13
2018-03-15T02:06:15.486Z,8.2
2018-03-15T02:07:15.511Z,8.23
2018-03-15T02:08:15.504Z,8.15
2018-03-15T02:09:15.799Z,8.23
2018-03-15T02:10:15.828Z,8.19
2018-03-15T02:11:15.826Z,8.16
2018-03-15T02:12:15.837Z,8.19
2018-03-15T02:13:15.574Z,8.2
2018-03-15T02:14:15.583Z,8.18
2018-03-15T02:15:15.595Z,8.12
2018-03-15T02:16:15.897Z,8.1
2018-03-15T02:17:15.906Z,8.12
2018-03-15T02:18:15.915Z,8.19
2018-03-15T02:19:15.649Z,8.1
2018-03-15T02:20:15.388Z,8.12
2018-03-15T02:21:15.670Z,8.12
2018-03-15T02:22:16.025Z,8.09
2018-03-15T02:23:15.983Z,8.1
2018-03-15T02:24:15.714Z,8.03
2018-03-15T02:25:15.724Z,8.05
2018-03-15T02:26:16.020Z,8
2018-03-15T02:27:15.754Z,8.06
2018-03-15T02:28:16.061Z,8.03
2018-03-15T02:29:16.069Z,8.05
2018-03-15T02:30:16.073Z,8.01
2018-03-15T02:31:16.093Z,7.98
2018-03-15T02:32:16.097Z,7.95
2018-03-15T02:33:16.112Z,8
2018-03-15T02:34:15.845Z,7.98
2018-03-15T02:35:16.139Z,8.01
2018-03-15T02:36:15.865Z,8.05
2018-03-15T02:37:15.932Z,8.01
2018-03-15T02:38:16.178Z,8.05
2018-03-15T02:39:15.905Z,7.9
2018-03-15T02:40:15.917Z,7.93
2018-03-15T02:41:16.216Z,7.94
2018-03-15T02:42:16.240Z,7.94
2018-03-15T02:43:15.958Z,7.93
2018-03-15T02:44:16.247Z,7.94
2018-03-15T02:45:16.269Z,7.8
2018-03-15T02:46:16.008Z,7.85
2018-03-15T02:47:16.307Z,7.87
2018-03-15T02:48:16.301Z,7.79
2018-03-15T02:49:16.381Z,7.77
2018-03-15T02:50:16.334Z,7.79
2018-03-15T02:51:16.063Z,7.79
2018-03-15T02:52:16.067Z,7.79
2018-03-15T02:53:16.080Z,7.79
2018-03-15T02:54:16.373Z,7.83
2018-03-15T02:55:16.403Z,7.8
2018-03-15T02:56:16.119Z,7.83
2018-03-15T02:57:16.423Z,7.66
2018-03-15T02:58:16.426Z,7.75
2018-03-15T02:59:15.874Z,7.76
2018-03-15T03:00:16.457Z,7.7
2018-03-15T03:01:16.519Z,7.73
2018-03-15T03:02:16.197Z,7.67
2018-03-15T03:03:16.213Z,7.67
2018-03-15T03:04:16.270Z,7.66
2018-03-15T03:05:16.523Z,7.67
2018-03-15T03:06:16.259Z,7.66
2018-03-15T03:07:16.542Z,7.58
2018-03-15T03:08:16.556Z,7.57
2018-03-15T03:09:16.654Z,7.61
2018-03-15T03:10:16.578Z,7.67
2018-03-15T03:11:16.590Z,7.58
2018-03-15T03:12:16.602Z,7.67
2018-03-15T03:13:16.618Z,7.6
2018-03-15T03:14:16.626Z,7.47
2018-03-15T03:15:16.357Z,7.54
2018-03-15T03:16:16.654Z,7.5
2018-03-15T03:17:16.665Z,7.54
2018-03-15T03:18:16.686Z,7.53
2018-03-15T03:19:16.419Z,7.51
2018-03-15T03:20:16.710Z,7.48
2018-03-15T03:21:16.719Z,7.51
2018-03-15T03:22:16.727Z,7.48
2018-03-15T03:23:16.633Z,7.48
2018-03-15T03:24:16.756Z,7.48
2018-03-15T03:25:16.832Z,7.39
2018-03-15T03:26:16.498Z,7.48
2018-03-15T03:27:16.795Z,7.48
2018-03-15T03:28:16.888Z,7.45
2018-03-15T03:29:16.815Z,7.48
2018-03-15T03:30:16.839Z,7.39
2018-03-15T03:31:16.563Z,7.45
2018-03-15T03:32:16.569Z,7.42
2018-03-15T03:33:16.871Z,7.43
2018-03-15T03:34:16.878Z,7.38
2018-03-15T03:35:16.892Z,7.4
2018-03-15T03:36:16.906Z,7.33
2018-03-15T03:37:16.634Z,7.4
2018-03-15T03:38:16.648Z,7.39
2018-03-15T03:39:16.653Z,7.31
2018-03-15T03:40:16.672Z,7.29
2018-03-15T03:41:16.685Z,7.25
2018-03-15T03:42:16.701Z,7.24
2018-03-15T03:43:17.001Z,7.28
2018-03-15T03:44:17.002Z,7.36
2018-03-15T03:45:17.015Z,7.33
2018-03-15T03:46:17.026Z,7.31
2018-03-15T03:47:17.040Z,7.32
2018-03-15T03:48:17.100Z,7.35
2018-03-15T03:49:16.499Z,7.31
2018-03-15T03:50:17.080Z,7.2
2018-03-15T03:51:16.803Z,7.2
2018-03-15T03:52:17.119Z,7.24
2018-03-15T03:53:16.888Z,7.24
2018-03-15T03:54:16.841Z,7.2
2018-03-15T03:55:17.139Z,7.15
2018-03-15T03:56:17.150Z,7.2
2018-03-15T03:57:17.164Z,7.15
2018-03-15T03:58:16.887Z,7.2
2018-03-15T03:59:16.911Z,7.18
2018-03-15T04:00:17.194Z,7.15
2018-03-15T04:01:17.207Z,7.17
2018-03-15T04:02:17.220Z,7.17
2018-03-15T04:03:17.296Z,7.18
2018-03-15T04:04:16.968Z,7.2
2018-03-15T04:05:17.264Z,7.14
2018-03-15T04:06:17.276Z,7.14
2018-03-15T04:07:17.013Z,7.23
2018-03-15T04:08:17.017Z,7.11
2018-03-15T04:09:17.311Z,7.21
2018-03-15T04:10:17.318Z,7.15
2018-03-15T04:11:16.768Z,7.23
2018-03-15T04:12:17.063Z,7.2
2018-03-15T04:13:17.125Z,7.15
2018-03-15T04:14:17.372Z,7.15
2018-03-15T04:15:17.383Z,7.23
2018-03-15T04:16:17.456Z,7.18
2018-03-15T04:17:17.402Z,7.17
2018-03-15T04:18:17.517Z,7.18
2018-03-15T04:19:17.455Z,7.21
2018-03-15T04:20:16.876Z,7.18
2018-03-15T04:21:17.509Z,7.06
2018-03-15T04:22:17.475Z,7.1
2018-03-15T04:23:17.553Z,7.14
2018-03-15T04:24:17.495Z,7.13
2018-03-15T04:25:17.513Z,7.11
2018-03-15T04:26:17.517Z,7.1
2018-03-15T04:27:17.596Z,7.1
2018-03-15T04:28:17.596Z,7.1
2018-03-15T04:29:17.551Z,7.14
2018-03-15T04:30:17.563Z,7.1
2018-03-15T04:31:17.577Z,7.11
2018-03-15T04:32:17.305Z,7.1
2018-03-15T04:33:17.652Z,7.07
2018-03-15T04:34:17.610Z,7.05
2018-03-15T04:35:17.622Z,7.07
2018-03-15T04:36:17.353Z,7.06
2018-03-15T04:37:17.649Z,7.14
2018-03-15T04:38:17.670Z,7.1
2018-03-15T04:39:17.678Z,7.05
2018-03-15T04:40:17.404Z,7.02
2018-03-15T04:41:17.702Z,7.05
2018-03-15T04:42:17.428Z,7.07
2018-03-15T04:43:17.725Z,7.02
2018-03-15T04:44:17.448Z,7.07
2018-03-15T04:45:17.744Z,7.03
2018-03-15T04:46:17.476Z,7.03
2018-03-15T04:47:17.201Z,7.07
2018-03-15T04:48:17.495Z,7.05
2018-03-15T04:49:17.512Z,7.06
2018-03-15T04:50:17.803Z,7.02
2018-03-15T04:51:17.819Z,7.02
2018-03-15T04:52:17.834Z,7.07
2018-03-15T04:53:17.846Z,7.07
2018-03-15T04:54:17.854Z,7.06
2018-03-15T04:55:17.867Z,7.06
2018-03-15T04:56:17.597Z,7.05
2018-03-15T04:57:17.605Z,6.96
2018-03-15T04:58:17.616Z,6.99
2018-03-15T04:59:17.919Z,7.03
2018-03-15T05:00:17.926Z,7.03
2018-03-15T05:01:17.654Z,6.96
2018-03-15T05:02:17.950Z,7.03
2018-03-15T05:03:17.961Z,7.05
2018-03-15T05:04:17.407Z,6.97
2018-03-15T05:05:17.984Z,6.95
2018-03-15T05:06:17.715Z,6.95
2018-03-15T05:07:18.019Z,7.07
2018-03-15T05:08:18.016Z,7.03
2018-03-15T05:09:18.114Z,7.06
2018-03-15T05:10:17.766Z,6.99
2018-03-15T05:11:17.775Z,7.06
2018-03-15T05:12:17.787Z,7.05
2018-03-15T05:13:18.086Z,7.03
2018-03-15T05:14:18.146Z,7
2018-03-15T05:15:18.101Z,7.03
2018-03-15T05:16:18.114Z,6.92
2018-03-15T05:17:18.128Z,6.92
2018-03-15T05:18:17.868Z,7
2018-03-15T05:19:18.148Z,6.89
2018-03-15T05:20:18.164Z,6.92
2018-03-15T05:21:17.899Z,7.05
2018-03-15T05:22:17.905Z,6.92
2018-03-15T05:23:18.202Z,6.93
2018-03-15T05:24:17.935Z,7.05
2018-03-15T05:25:18.272Z,6.96
2018-03-15T05:26:17.954Z,7.06
2018-03-15T05:27:18.246Z,7.05
2018-03-15T05:28:17.976Z,6.95
2018-03-15T05:29:17.989Z,6.92
2018-03-15T05:30:18.003Z,7.03
2018-03-15T05:31:18.330Z,7
2018-03-15T05:32:18.022Z,7.06
2018-03-15T05:33:18.044Z,7.05
2018-03-15T05:34:18.334Z,7.02
2018-03-15T05:35:18.062Z,6.95
2018-03-15T05:36:18.080Z,7.03
2018-03-15T05:37:18.487Z,7.05
2018-03-15T05:38:18.097Z,7.06
2018-03-15T05:39:18.108Z,7.05
2018-03-15T05:40:18.409Z,7.06
2018-03-15T05:41:18.415Z,7.03
2018-03-15T05:42:18.425Z,6.92
2018-03-15T05:43:18.154Z,7.06
2018-03-15T05:44:18.166Z,6.92
2018-03-15T05:45:18.460Z,6.95
2018-03-15T05:46:17.906Z,6.92
2018-03-15T05:47:17.920Z,6.93
2018-03-15T05:48:18.216Z,6.89
2018-03-15T05:49:18.562Z,6.95
2018-03-15T05:50:18.520Z,7.06
2018-03-15T05:51:18.537Z,6.93
2018-03-15T05:52:17.978Z,7.05
2018-03-15T05:53:18.275Z,7.05
2018-03-15T05:54:18.623Z,7.06
2018-03-15T05:55:18.579Z,7.05
2018-03-15T05:56:18.028Z,7.03
2018-03-15T05:57:18.603Z,7.02
2018-03-15T05:58:18.340Z,6.99
2018-03-15T05:59:18.348Z,7.02
2018-03-15T06:00:18.074Z,7.03
2018-03-15T06:01:18.650Z,7.06
2018-03-15T06:02:18.670Z,7.06
2018-03-15T06:03:18.671Z,7.06
2018-03-15T06:04:18.739Z,7.13
2018-03-15T06:05:18.416Z,7.07
2018-03-15T06:06:18.711Z,7.05
2018-03-15T06:07:18.439Z,7.06
2018-03-15T06:08:18.741Z,7.05
2018-03-15T06:09:18.747Z,7.02
2018-03-15T06:10:18.196Z,7.02
2018-03-15T06:11:18.789Z,7.02
2018-03-15T06:12:18.782Z,7.03
2018-03-15T06:13:18.796Z,7.02
2018-03-15T06:14:18.859Z,7.03
2018-03-15T06:15:18.534Z,7.03
2018-03-15T06:16:18.829Z,7.1
2018-03-15T06:17:18.894Z,7.05
2018-03-15T06:18:18.858Z,7.13
2018-03-15T06:19:18.718Z,7.1
2018-03-15T06:20:18.596Z,7.11
2018-03-15T06:21:18.606Z,7.13
2018-03-15T06:22:18.897Z,7.1
2018-03-15T06:23:18.914Z,7.17
2018-03-15T06:24:18.643Z,7.2
2018-03-15T06:25:18.657Z,7.2
2018-03-15T06:26:18.956Z,7.2
2018-03-15T06:27:18.962Z,7.18
2018-03-15T06:28:18.971Z,7.23
2018-03-15T06:29:18.418Z,7.23
2018-03-15T06:30:18.718Z,7.24
2018-03-15T06:31:19.011Z,7.2
2018-03-15T06:32:18.736Z,7.2
2018-03-15T06:33:18.762Z,7.11
2018-03-15T06:34:18.766Z,7.15
2018-03-15T06:35:19.055Z,7.18
2018-03-15T06:36:19.083Z,7.21
2018-03-15T06:37:19.091Z,7.23
2018-03-15T06:38:19.096Z,7.15
2018-03-15T06:39:19.106Z,7.14
2018-03-15T06:40:18.550Z,7.17
2018-03-15T06:41:19.133Z,7.2
2018-03-15T06:42:18.862Z,7.15
2018-03-15T06:43:19.153Z,7.13
2018-03-15T06:44:19.166Z,7.15
2018-03-15T06:45:19.174Z,7.13
2018-03-15T06:46:18.909Z,7.17
2018-03-15T06:47:19.202Z,7.21
2018-03-15T06:48:19.211Z,7.14
2018-03-15T06:49:19.228Z,7.14
2018-03-15T06:50:19.246Z,7.15
2018-03-15T06:51:19.256Z,7.17
2018-03-15T06:52:19.262Z,7.13
2018-03-15T06:53:19.275Z,7.17
2018-03-15T06:54:19.306Z,7.17
2018-03-15T06:55:19.295Z,7.21
2018-03-15T06:56:19.028Z,7.29
2018-03-15T06:57:19.039Z,7.2
2018-03-15T06:58:19.047Z,7.33
2018-03-15T06:59:19.355Z,7.31
2018-03-15T07:00:19.074Z,7.28
2018-03-15T07:01:19.088Z,7.28
2018-03-15T07:02:19.099Z,7.31
2018-03-15T07:03:19.110Z,7.35
2018-03-15T07:04:19.415Z,7.35
2018-03-15T07:05:19.417Z,7.47
2018-03-15T07:06:19.151Z,7.4
2018-03-15T07:07:19.158Z,7.47
2018-03-15T07:08:19.177Z,7.45
2018-03-15T07:09:19.184Z,7.53
2018-03-15T07:10:19.259Z,7.51
2018-03-15T07:11:18.927Z,7.53
2018-03-15T07:12:19.226Z,7.61
2018-03-15T07:13:19.234Z,7.69
2018-03-15T07:14:19.524Z,7.63
2018-03-15T07:15:19.256Z,7.73
2018-03-15T07:16:19.552Z,7.7
2018-03-15T07:17:19.574Z,7.73
2018-03-15T07:18:19.007Z,7.79
2018-03-15T07:19:19.587Z,7.77
2018-03-15T07:20:19.658Z,7.79
2018-03-15T07:21:19.046Z,7.83
2018-03-15T07:22:19.624Z,7.87
2018-03-15T07:23:19.632Z,7.93
2018-03-15T07:24:19.644Z,8
2018-03-15T07:25:19.381Z,8.01
2018-03-15T07:26:19.668Z,8
2018-03-15T07:27:19.688Z,7.98
2018-03-15T07:28:19.702Z,7.95
2018-03-15T07:29:19.707Z,8
2018-03-15T07:30:19.451Z,8
2018-03-15T07:31:19.727Z,7.95
2018-03-15T07:32:19.512Z,8.06
2018-03-15T07:33:19.474Z,8.06
2018-03-15T07:34:19.768Z,8.03
2018-03-15T07:35:19.216Z,8.08
2018-03-15T07:36:19.506Z,8.06
2018-03-15T07:37:19.804Z,8.13
2018-03-15T07:38:19.533Z,8.12
2018-03-15T07:39:19.947Z,8.16
2018-03-15T07:40:19.578Z,8.15
2018-03-15T07:41:19.851Z,8.18
2018-03-15T07:42:19.588Z,8.18
2018-03-15T07:43:19.598Z,8.16
2018-03-15T07:44:19.899Z,8.19
2018-03-15T07:45:19.920Z,8.18
2018-03-15T07:46:19.634Z,8.24
2018-03-15T07:47:19.929Z,8.27
2018-03-15T07:48:19.944Z,8.2
2018-03-15T07:49:19.671Z,8.24
2018-03-15T07:50:19.680Z,8.34
2018-03-15T07:51:19.694Z,8.31
2018-03-15T07:52:19.993Z,8.33
2018-03-15T07:53:19.438Z,8.33
2018-03-15T07:54:19.728Z,8.46
2018-03-15T07:55:20.026Z,8.46
2018-03-15T07:56:19.754Z,8.45
2018-03-15T07:57:20.069Z,8.48
2018-03-15T07:58:20.066Z,8.48
2018-03-15T07:59:19.803Z,8.63
2018-03-15T08:00:19.814Z,8.67
2018-03-15T08:01:20.103Z,8.64
2018-03-15T08:02:20.123Z,8.67
2018-03-15T08:03:20.126Z,8.73
2018-03-15T08:04:20.146Z,8.71
2018-03-15T08:05:19.946Z,8.7
2018-03-15T08:06:20.167Z,8.79
2018-03-15T08:07:20.384Z,8.78
2018-03-15T08:08:20.204Z,8.84
2018-03-15T08:09:19.919Z,8.79
2018-03-15T08:10:19.940Z,8.89
2018-03-15T08:11:19.950Z,8.89
2018-03-15T08:12:20.242Z,8.99
2018-03-15T08:13:19.972Z,8.97
2018-03-15T08:14:20.010Z,9.04
2018-03-15T08:15:19.998Z,9.02
2018-03-15T08:16:20.013Z,9.03
2018-03-15T08:17:20.306Z,9.11
2018-03-15T08:18:20.317Z,9.04
2018-03-15T08:19:20.338Z,9.14
2018-03-15T08:20:20.392Z,9.25
2018-03-15T08:21:20.076Z,9.16
2018-03-15T08:22:20.088Z,9.21
2018-03-15T08:23:20.390Z,9.23
2018-03-15T08:24:20.521Z,9.23
2018-03-15T08:25:20.456Z,9.26
2018-03-15T08:26:20.140Z,9.28
2018-03-15T08:27:20.434Z,9.28
2018-03-15T08:28:20.453Z,9.29
2018-03-15T08:29:20.467Z,9.26
2018-03-15T08:30:20.474Z,9.22
2018-03-15T08:31:20.485Z,9.36
2018-03-15T08:32:20.501Z,9.31
2018-03-15T08:33:19.956Z,9.37
2018-03-15T08:34:20.523Z,9.34
2018-03-15T08:35:20.589Z,9.4
2018-03-15T08:36:20.556Z,9.5
2018-03-15T08:37:20.573Z,9.46
2018-03-15T08:38:20.577Z,9.44
2018-03-15T08:39:20.596Z,9.47
2018-03-15T08:40:20.323Z,9.46
2018-03-15T08:41:20.695Z,9.51
2018-03-15T08:42:20.067Z,9.54
2018-03-15T08:43:20.364Z,9.59
2018-03-15T08:44:20.663Z,9.54
2018-03-15T08:45:20.674Z,9.56
2018-03-15T08:46:20.753Z,9.59
2018-03-15T08:47:20.416Z,9.59
2018-03-15T08:48:20.736Z,9.56
2018-03-15T08:49:20.723Z,9.62
2018-03-15T08:50:20.740Z,9.59
2018-03-15T08:51:20.756Z,9.58
2018-03-15T08:52:20.814Z,9.61
2018-03-15T08:53:20.494Z,9.58
2018-03-15T08:54:20.794Z,9.56
2018-03-15T08:55:20.802Z,9.68
2018-03-15T08:56:20.816Z,9.69
2018-03-15T08:57:20.951Z,9.62
2018-03-15T08:58:20.963Z,9.68
2018-03-15T08:59:20.573Z,9.76
2018-03-15T09:00:20.919Z,9.68
2018-03-15T09:01:20.887Z,9.82
2018-03-15T09:02:20.902Z,9.74
2018-03-15T09:03:20.920Z,9.82
2018-03-15T09:04:20.731Z,9.79
2018-03-15T09:05:20.655Z,9.83
2018-03-15T09:06:20.712Z,9.95
2018-03-15T09:07:21.076Z,9.98
2018-03-15T09:08:20.710Z,9.99
2018-03-15T09:09:20.707Z,10.13
2018-03-15T09:10:20.721Z,10.07
2018-03-15T09:11:21.018Z,10.13
2018-03-15T09:12:21.036Z,10.17
2018-03-15T09:13:21.049Z,10.25
2018-03-15T09:14:21.066Z,10.28
2018-03-15T09:15:21.070Z,10.3
2018-03-15T09:16:21.086Z,10.26
2018-03-15T09:17:21.101Z,10.44
2018-03-15T09:18:21.149Z,10.38
2018-03-15T09:19:21.123Z,10.46
2018-03-15T09:20:21.144Z,10.57
2018-03-15T09:21:20.874Z,10.49
2018-03-15T09:22:21.165Z,10.63
2018-03-15T09:23:21.182Z,10.61
2018-03-15T09:24:20.913Z,10.61
2018-03-15T09:25:20.928Z,10.72
2018-03-15T09:26:21.228Z,10.74
2018-03-15T09:27:21.237Z,10.74
2018-03-15T09:28:21.254Z,10.78
2018-03-15T09:29:20.983Z,10.79
2018-03-15T09:30:22.145Z,10.84
2018-03-15T09:31:21.322Z,10.81
2018-03-15T09:32:21.047Z,10.87
2018-03-15T09:33:21.051Z,10.93
2018-03-15T09:34:21.405Z,10.87
2018-03-15T09:35:21.381Z,10.99
2018-03-15T09:36:21.406Z,10.96
2018-03-15T09:37:22.225Z,11.1
2018-03-15T09:38:21.427Z,11.14
2018-03-15T09:39:21.460Z,11.14
2018-03-15T09:40:21.143Z,11.32
2018-03-15T09:41:21.161Z,11.25
2018-03-15T09:42:21.546Z,11.33
2018-03-15T09:43:21.522Z,11.4
2018-03-15T09:44:21.533Z,11.45
2018-03-15T09:45:22.042Z,11.51
2018-03-15T09:46:21.762Z,11.51
2018-03-15T09:47:21.260Z,11.51
2018-03-15T09:48:21.590Z,11.62
2018-03-15T09:49:21.611Z,11.68
2018-03-15T09:50:21.586Z,11.69
2018-03-15T09:51:21.678Z,11.62
2018-03-15T09:52:21.705Z,11.75
2018-03-15T09:53:22.421Z,11.81
2018-03-15T09:54:21.352Z,11.78
2018-03-15T09:55:21.807Z,11.8
2018-03-15T09:56:21.678Z,11.84
2018-03-15T09:57:21.389Z,11.87
2018-03-15T09:58:21.395Z,11.97
2018-03-15T09:59:21.742Z,11.91
2018-03-15T10:00:22.222Z,11.95
2018-03-15T10:01:21.768Z,12
2018-03-15T10:02:21.465Z,12.03
2018-03-15T10:03:21.179Z,12.07
2018-03-15T10:04:21.486Z,12.06
2018-03-15T10:05:21.206Z,12.18
2018-03-15T10:06:21.821Z,12.18
2018-03-15T10:07:21.519Z,12.17
2018-03-15T10:08:22.542Z,12.24
2018-03-15T10:09:21.565Z,12.22
2018-03-15T10:10:21.874Z,12.27
2018-03-15T10:11:21.936Z,12.35
2018-03-15T10:12:21.626Z,12.42
2018-03-15T10:13:21.713Z,12.42
2018-03-15T10:14:21.641Z,12.43
2018-03-15T10:15:23.411Z,12.42
2018-03-15T10:16:22.025Z,12.5
2018-03-15T10:17:21.973Z,12.54
2018-03-15T10:18:21.699Z,12.53
2018-03-15T10:19:21.997Z,12.61
2018-03-15T10:20:21.424Z,12.65
2018-03-15T10:21:22.093Z,12.68
2018-03-15T10:22:22.228Z,12.7
2018-03-15T10:23:21.476Z,12.75
2018-03-15T10:24:21.485Z,12.78
2018-03-15T10:25:31.918Z,12.87
2018-03-15T10:26:22.121Z,12.93
2018-03-15T10:27:21.847Z,12.94
2018-03-15T10:28:22.192Z,13.05
2018-03-15T10:29:21.880Z,13.04
2018-03-15T10:30:23.783Z,13.11
2018-03-15T10:31:22.232Z,13.08
2018-03-15T10:32:21.908Z,13.08
2018-03-15T10:33:22.244Z,13.04
2018-03-15T10:34:21.965Z,13.18
2018-03-15T10:35:22.245Z,13.19
2018-03-15T10:36:22.268Z,13.16
2018-03-15T10:37:22.817Z,13.18
2018-03-15T10:38:22.305Z,13.2
2018-03-15T10:39:21.713Z,13.27
2018-03-15T10:40:21.727Z,13.25
2018-03-15T10:41:22.036Z,13.22
2018-03-15T10:42:22.436Z,13.33
2018-03-15T10:43:22.382Z,13.31
2018-03-15T10:44:22.386Z,13.3
2018-03-15T10:45:23.025Z,13.35
2018-03-15T10:46:22.444Z,13.3
2018-03-15T10:47:22.169Z,13.31
2018-03-15T10:48:22.146Z,13.38
2018-03-15T10:49:22.508Z,13.33
2018-03-15T10:50:22.479Z,13.31
2018-03-15T10:51:21.898Z,13.33
2018-03-15T10:52:21.915Z,13.38
2018-03-15T10:53:23.316Z,13.31
2018-03-15T10:54:22.538Z,13.44
2018-03-15T10:55:22.547Z,13.41
2018-03-15T10:56:22.572Z,13.41
2018-03-15T10:57:22.287Z,13.47
2018-03-15T10:58:22.609Z,13.38
2018-03-15T10:59:22.338Z,13.44
2018-03-15T11:00:22.345Z,13.52
2018-03-15T11:01:22.352Z,13.52
2018-03-15T11:02:22.374Z,13.52
2018-03-15T11:03:22.380Z,13.59
2018-03-15T11:04:22.403Z,13.54
2018-03-15T11:05:22.730Z,13.56
2018-03-15T11:06:22.732Z,13.57
2018-03-15T11:07:22.448Z,13.6
2018-03-15T11:08:23.545Z,13.7
2018-03-15T11:09:22.488Z,13.71
2018-03-15T11:10:22.200Z,13.7
2018-03-15T11:11:22.806Z,13.68
2018-03-15T11:12:22.550Z,13.72
2018-03-15T11:13:22.865Z,13.77
2018-03-15T11:14:22.859Z,13.81
2018-03-15T11:15:22.966Z,13.78
2018-03-15T11:16:24.254Z,13.9
2018-03-15T11:17:22.977Z,13.86
2018-03-15T11:18:22.922Z,13.9
2018-03-15T11:19:22.947Z,13.92
2018-03-15T11:20:22.972Z,13.99
2018-03-15T11:21:22.995Z,13.95
2018-03-15T11:22:22.737Z,13.99
2018-03-15T11:23:22.712Z,14.04
2018-03-15T11:24:24.661Z,14
2018-03-15T11:25:23.051Z,14.05
2018-03-15T11:26:22.755Z,14
2018-03-15T11:27:23.123Z,14.12
2018-03-15T11:28:22.788Z,14.07
2018-03-15T11:29:22.510Z,14.11
2018-03-15T11:30:22.831Z,14.18
2018-03-15T11:31:23.129Z,14.26
2018-03-15T11:32:23.984Z,14.14
2018-03-15T11:33:22.879Z,14.17
2018-03-15T11:34:23.236Z,14.12
2018-03-15T11:35:22.914Z,14.12
2018-03-15T11:36:23.237Z,14.1
2018-03-15T11:37:23.295Z,14.12
2018-03-15T11:38:23.272Z,14.23
2018-03-15T11:39:23.550Z,14.18
2018-03-15T11:40:22.993Z,14.18
2018-03-15T11:41:23.011Z,14.23
2018-03-15T11:42:23.395Z,14.18
2018-03-15T11:43:23.099Z,14.25
2018-03-15T11:44:23.411Z,14.2
2018-03-15T11:45:23.399Z,14.22
2018-03-15T11:46:23.089Z,14.23
2018-03-15T11:47:25.217Z,14.2
2018-03-15T11:48:23.461Z,14.17
2018-03-15T11:49:23.438Z,14.2
2018-03-15T11:50:23.481Z,14.26
2018-03-15T11:51:23.187Z,14.29
2018-03-15T11:52:23.489Z,14.25
2018-03-15T11:53:23.207Z,14.28
2018-03-15T11:54:23.517Z,14.29
2018-03-15T11:55:24.178Z,14.25
2018-03-15T11:56:23.561Z,14.28
2018-03-15T11:57:23.579Z,14.23
2018-03-15T11:58:23.610Z,14.3
2018-03-15T11:59:23.307Z,14.33
2018-03-15T12:00:23.676Z,14.32
2018-03-15T12:01:23.648Z,14.3
2018-03-15T12:02:24.209Z,14.33
2018-03-15T12:03:23.375Z,14.45
2018-03-15T12:04:23.402Z,14.44
2018-03-15T12:05:23.418Z,14.44
2018-03-15T12:06:23.433Z,14.37
2018-03-15T12:07:23.736Z,14.44
2018-03-15T12:08:23.818Z,14.35
2018-03-15T12:09:23.186Z,14.32
2018-03-15T12:10:24.230Z,14.37
2018-03-15T12:11:23.220Z,14.33
2018-03-15T12:12:23.537Z,14.33
2018-03-15T12:13:23.885Z,14.32
2018-03-15T12:14:23.867Z,14.36
2018-03-15T12:15:23.878Z,14.35
2018-03-15T12:16:23.597Z,14.35
2018-03-15T12:17:23.603Z,14.43
2018-03-15T12:18:23.626Z,14.35
2018-03-15T12:19:23.923Z,14.45
2018-03-15T12:20:23.658Z,14.47
2018-03-15T12:21:23.675Z,14.43
2018-03-15T12:22:23.700Z,14.5
2018-03-15T12:23:24.046Z,14.51
2018-03-15T12:24:23.443Z,14.51
2018-03-15T12:25:23.745Z,14.41
2018-03-15T12:26:23.479Z,14.4
2018-03-15T12:27:24.058Z,14.43
2018-03-15T12:28:23.842Z,14.44
2018-03-15T12:29:24.094Z,14.32
2018-03-15T12:30:24.113Z,14.3
2018-03-15T12:31:24.228Z,14.28
2018-03-15T12:32:24.203Z,14.36
2018-03-15T12:33:23.937Z,14.3
2018-03-15T12:34:24.198Z,14.37
2018-03-15T12:35:24.205Z,14.33
2018-03-15T12:36:23.936Z,14.28
2018-03-15T12:37:24.232Z,14.33
2018-03-15T12:38:24.020Z,14.32
2018-03-15T12:39:24.271Z,14.37
2018-03-15T12:40:24.294Z,14.3
2018-03-15T12:41:24.318Z,14.37
2018-03-15T12:42:24.045Z,14.33
2018-03-15T12:43:24.056Z,14.28
2018-03-15T12:44:24.364Z,14.45
2018-03-15T12:45:24.092Z,14.47
2018-03-15T12:46:24.394Z,14.41
2018-03-15T12:47:24.413Z,14.4
2018-03-15T12:48:24.431Z,14.47
2018-03-15T12:49:24.165Z,14.43
2018-03-15T12:50:24.483Z,14.47
2018-03-15T12:51:24.486Z,14.44
2018-03-15T12:52:24.219Z,14.43
2018-03-15T12:53:24.289Z,14.44
2018-03-15T12:54:24.534Z,14.37
2018-03-15T12:55:24.566Z,14.41
2018-03-15T12:56:24.575Z,14.33
2018-03-15T12:57:24.701Z,14.35
2018-03-15T12:58:24.323Z,14.35
2018-03-15T12:59:24.628Z,14.36
2018-03-15T13:00:24.408Z,14.35
2018-03-15T13:01:24.668Z,14.37
2018-03-15T13:02:24.394Z,14.35
2018-03-15T13:03:24.413Z,14.37
2018-03-15T13:04:24.715Z,14.37
2018-03-15T13:05:24.451Z,14.41
2018-03-15T13:06:24.467Z,14.45
2018-03-15T13:07:24.767Z,14.41
2018-03-15T13:08:24.785Z,14.41
2018-03-15T13:09:24.522Z,14.5
2018-03-15T13:10:24.818Z,14.41
2018-03-15T13:11:24.839Z,14.45
2018-03-15T13:12:24.853Z,14.35
2018-03-15T13:13:24.590Z,14.45
2018-03-15T13:14:24.612Z,14.45